createdAt,value
2022-09-07T00:03:24.486Z,-252.00
2022-09-07T00:08:31.705Z,-252.00
2022-09-07T00:13:38.794Z,-216.00
2022-09-07T00:18:46.617Z,-252.00
2022-09-07T00:23:53.252Z,-252.00
2022-09-07T00:29:00.445Z,-252.00
2022-09-07T00:34:07.618Z,-216.00
2022-09-07T00:39:14.796Z,-216.00
2022-09-07T00:44:21.986Z,-252.00
2022-09-07T00:49:29.186Z,-216.00
2022-09-07T00:54:36.471Z,-252.00
2022-09-07T00:59:43.707Z,-252.00
2022-09-07T01:04:50.950Z,-252.00
2022-09-07T01:09:58.113Z,-252.00
2022-09-07T01:15:05.314Z,-252.00
2022-09-07T01:20:12.479Z,-252.00
2022-09-07T01:25:19.673Z,-252.00
2022-09-07T01:30:26.859Z,-252.00
2022-09-07T01:35:34.043Z,-216.00
2022-09-07T01:40:41.232Z,-216.00
2022-09-07T01:45:48.415Z,-252.00
2022-09-07T01:50:55.615Z,-216.00
2022-09-07T01:56:02.799Z,-252.00
2022-09-07T02:01:09.969Z,-216.00
2022-09-07T02:06:17.160Z,-252.00
2022-09-07T02:11:24.376Z,-252.00
2022-09-07T02:16:31.527Z,-216.00
2022-09-07T02:21:38.716Z,-216.00
2022-09-07T02:26:45.921Z,-252.00
2022-09-07T02:31:53.086Z,-252.00
2022-09-07T02:37:00.267Z,-216.00
2022-09-07T02:42:07.444Z,-252.00
2022-09-07T02:47:14.637Z,-216.00
2022-09-07T02:52:21.813Z,-252.00
2022-09-07T02:57:29.005Z,-252.00
2022-09-07T03:02:36.287Z,-252.00
2022-09-07T03:07:44.342Z,-216.00
2022-09-07T03:12:50.675Z,-252.00
2022-09-07T03:17:57.972Z,-252.00
2022-09-07T03:23:05.198Z,-252.00
2022-09-07T03:28:12.445Z,-252.00
2022-09-07T03:33:19.658Z,-216.00
2022-09-07T03:38:26.973Z,-216.00
2022-09-07T03:43:34.136Z,-216.00
2022-09-07T03:48:41.359Z,-252.00
2022-09-07T03:53:48.540Z,-216.00
2022-09-07T03:58:55.730Z,-252.00
2022-09-07T04:04:03.012Z,-216.00
2022-09-07T04:09:10.095Z,-216.00
2022-09-07T04:14:17.340Z,-216.00
2022-09-07T04:19:24.608Z,-252.00
2022-09-07T04:24:31.852Z,-216.00
2022-09-07T04:29:38.990Z,-216.00
2022-09-07T04:34:46.222Z,-252.00
2022-09-07T04:39:53.496Z,-252.00
2022-09-07T04:45:00.575Z,-216.00
2022-09-07T04:50:07.774Z,-216.00
2022-09-07T04:55:14.964Z,-216.00
2022-09-07T05:00:22.152Z,-252.00
2022-09-07T05:05:29.330Z,-216.00
2022-09-07T05:10:36.526Z,-216.00
2022-09-07T05:15:43.707Z,-180.00
2022-09-07T05:20:50.901Z,-180.00
2022-09-07T05:25:58.149Z,-216.00
2022-09-07T05:31:20.869Z,-216.00
2022-09-07T05:36:12.554Z,-180.00
2022-09-07T05:41:19.730Z,-180.00
2022-09-07T05:46:26.916Z,-144.00
2022-09-07T05:51:34.097Z,-144.00
2022-09-07T05:56:41.265Z,-144.00
2022-09-07T06:01:48.672Z,-144.00
2022-09-07T06:07:21.562Z,-108.00
2022-09-07T06:12:02.941Z,-108.00
2022-09-07T06:17:10.132Z,-72.00
2022-09-07T06:22:17.307Z,0.00
2022-09-07T06:27:24.508Z,-72.00
2022-09-07T06:32:47.104Z,-108.00
2022-09-07T06:37:38.831Z,0.00
2022-09-07T06:42:46.108Z,-36.00
2022-09-07T06:47:53.328Z,-72.00
2022-09-07T06:58:07.727Z,-72.00
2022-09-07T07:03:14.956Z,36.00
2022-09-07T07:08:22.091Z,36.00
2022-09-07T07:13:29.251Z,36.00
2022-09-07T07:18:36.912Z,108.00
2022-09-07T07:23:43.635Z,144.00
2022-09-07T07:29:06.286Z,108.00
2022-09-07T07:33:58.076Z,72.00
2022-09-07T07:39:05.253Z,72.00
2022-09-07T07:44:12.388Z,72.00
2022-09-07T07:49:19.623Z,108.00
2022-09-07T07:54:26.820Z,108.00
2022-09-07T07:59:34.029Z,252.00
2022-09-07T08:04:41.262Z,432.00
2022-09-07T08:09:48.396Z,432.00
2022-09-07T08:14:55.598Z,504.00
2022-09-07T08:20:02.842Z,432.00
2022-09-07T08:25:10.018Z,432.00
2022-09-07T08:30:17.230Z,540.00
2022-09-07T08:35:24.445Z,15768.00
2022-09-07T08:40:31.626Z,17064.00
2022-09-07T08:45:38.798Z,16848.00
2022-09-07T08:50:46.017Z,16020.00
2022-09-07T08:55:53.236Z,16200.00
2022-09-07T09:06:07.773Z,16524.00
2022-09-07T09:11:14.821Z,13824.00
2022-09-07T09:16:22.107Z,12852.00
2022-09-07T09:21:29.264Z,14580.00
2022-09-07T09:26:36.465Z,15804.00
2022-09-07T09:31:43.717Z,19260.00
2022-09-07T09:36:50.875Z,16056.00
2022-09-07T09:41:58.006Z,14652.00
2022-09-07T09:52:29.995Z,15156.00
2022-09-07T09:57:19.584Z,14148.00
2022-09-07T10:07:33.978Z,14040.00
2022-09-07T10:12:41.158Z,11268.00
2022-09-07T10:17:48.329Z,11484.00
2022-09-07T10:22:55.635Z,14364.00
2022-09-07T10:28:02.717Z,14472.00
2022-09-07T10:33:09.884Z,14256.00
2022-09-07T10:38:17.075Z,11520.00
2022-09-07T10:43:24.328Z,12888.00
2022-09-07T10:48:31.770Z,10368.00
2022-09-07T10:53:41.929Z,14364.00
2022-09-07T10:59:02.146Z,14076.00
2022-09-07T11:03:53.257Z,14364.00
2022-09-07T11:09:17.187Z,14616.00
2022-09-07T11:14:13.660Z,14580.00
2022-09-07T11:24:22.306Z,14868.00
2022-09-07T11:29:29.763Z,15048.00
2022-09-07T11:34:36.676Z,15444.00
2022-09-07T11:39:44.000Z,15552.00
2022-09-07T11:44:51.061Z,15696.00
2022-09-07T11:49:59.539Z,15660.00
2022-09-07T11:55:05.619Z,14652.00
2022-09-07T12:00:12.757Z,12924.00
2022-09-07T12:05:20.188Z,13104.00
2022-09-07T12:10:27.473Z,15768.00
2022-09-07T12:15:34.777Z,15588.00
2022-09-07T12:20:41.969Z,13212.00
2022-09-07T12:25:49.210Z,14760.00
2022-09-07T12:30:56.434Z,13500.00
2022-09-07T12:36:03.556Z,15264.00
2022-09-07T12:41:10.852Z,11448.00
2022-09-07T12:46:18.077Z,11736.00
2022-09-07T12:56:32.502Z,14040.00
2022-09-07T13:01:39.816Z,16092.00
2022-09-07T13:07:02.622Z,18288.00
2022-09-07T13:11:54.160Z,18756.00
2022-09-07T13:17:16.861Z,15732.00
2022-09-07T13:22:08.511Z,14616.00
2022-09-07T13:27:15.696Z,13320.00
2022-09-07T13:33:07.821Z,12888.00
2022-09-07T13:37:30.046Z,12240.00
2022-09-07T13:42:37.262Z,13104.00
2022-09-07T13:47:44.418Z,12996.00
2022-09-07T13:52:51.612Z,10728.00
2022-09-07T13:57:58.907Z,11988.00
2022-09-07T14:03:06.106Z,12240.00
2022-09-07T14:08:13.387Z,14616.00
2022-09-07T14:13:20.620Z,14904.00
2022-09-07T14:18:27.787Z,14616.00
2022-09-07T14:23:35.062Z,14616.00
2022-09-07T14:28:42.377Z,14220.00
2022-09-07T14:33:49.602Z,13896.00
2022-09-07T14:39:04.421Z,13932.00
2022-09-07T14:44:04.011Z,13536.00
2022-09-07T14:49:11.170Z,13428.00
2022-09-07T14:54:18.446Z,13032.00
2022-09-07T14:59:25.689Z,12744.00
2022-09-07T15:04:33.048Z,13212.00
2022-09-07T15:09:40.108Z,14004.00
2022-09-07T15:14:47.852Z,14076.00
2022-09-07T15:19:54.571Z,13500.00
2022-09-07T15:25:01.733Z,12492.00
2022-09-07T15:30:08.973Z,13140.00
2022-09-07T15:35:16.249Z,13644.00
2022-09-07T15:40:23.652Z,14076.00
2022-09-07T15:45:30.833Z,13896.00
2022-09-07T15:50:38.082Z,13176.00
2022-09-07T15:55:45.252Z,12384.00
2022-09-07T16:01:51.356Z,11664.00
2022-09-07T16:05:59.760Z,11196.00
2022-09-07T16:11:11.263Z,12816.00
2022-09-07T16:16:15.746Z,12168.00
2022-09-07T16:21:26.171Z,12780.00
2022-09-07T16:26:28.970Z,10908.00
2022-09-07T16:31:36.278Z,8460.00
2022-09-07T16:36:43.410Z,6552.00
2022-09-07T16:41:50.447Z,5724.00
2022-09-07T16:46:57.746Z,5328.00
2022-09-07T16:52:04.896Z,5220.00
2022-09-07T16:57:12.156Z,5364.00
2022-09-07T17:02:19.396Z,5508.00
2022-09-07T17:07:26.542Z,4932.00
2022-09-07T17:12:33.739Z,4608.00
2022-09-07T17:17:40.949Z,3384.00
2022-09-07T17:22:48.108Z,2484.00
2022-09-07T17:27:55.315Z,1620.00
2022-09-07T17:33:02.714Z,936.00
2022-09-07T17:48:24.152Z,72.00
2022-09-07T17:53:31.311Z,-72.00
2022-09-07T17:58:38.787Z,8208.00
2022-09-07T18:03:46.503Z,8352.00
2022-09-07T18:08:54.018Z,8352.00
2022-09-07T18:14:01.411Z,8388.00
2022-09-07T18:19:11.665Z,8460.00
2022-09-07T18:24:19.253Z,8676.00
2022-09-07T18:29:29.975Z,8568.00
2022-09-07T18:34:34.563Z,8568.00
2022-09-07T18:39:42.256Z,8604.00
2022-09-07T18:49:57.407Z,8712.00
2022-09-07T18:55:05.001Z,8568.00
2022-09-07T19:00:12.615Z,8640.00
2022-09-07T19:10:27.957Z,8532.00
2022-09-07T19:15:37.458Z,8712.00
2022-09-07T19:20:44.219Z,8712.00
2022-09-07T19:25:52.944Z,8820.00
2022-09-07T19:31:00.656Z,8604.00
2022-09-07T19:36:08.290Z,8712.00
2022-09-07T19:41:15.793Z,8820.00
2022-09-07T19:46:25.049Z,8820.00
2022-09-07T19:51:36.145Z,8712.00
2022-09-07T19:56:38.530Z,8820.00
2022-09-07T20:01:46.495Z,8892.00
2022-09-07T20:06:53.786Z,8820.00
2022-09-07T20:12:01.367Z,8928.00
2022-09-07T20:17:08.769Z,8604.00
2022-09-07T20:22:16.315Z,8568.00
2022-09-07T20:27:23.596Z,8496.00
2022-09-07T20:32:30.859Z,8568.00
2022-09-07T20:37:38.128Z,8532.00
2022-09-07T20:42:45.387Z,8568.00
2022-09-07T20:47:52.674Z,8460.00
2022-09-07T20:52:59.917Z,8424.00
2022-09-07T20:58:07.051Z,8388.00
2022-09-07T21:03:14.239Z,8244.00
2022-09-07T21:08:21.463Z,8280.00
2022-09-07T21:13:28.701Z,8352.00
2022-09-07T21:18:35.780Z,8316.00
2022-09-07T21:23:43.000Z,8316.00
2022-09-07T21:28:50.140Z,8316.00
2022-09-07T21:33:57.337Z,7956.00
2022-09-07T21:39:04.575Z,8064.00
2022-09-07T21:44:11.821Z,8028.00
2022-09-07T21:49:19.019Z,8100.00
2022-09-07T21:54:26.241Z,8064.00
2022-09-07T21:59:33.494Z,8136.00
2022-09-07T22:04:40.722Z,8568.00
2022-09-07T22:09:47.950Z,8460.00
2022-09-07T22:14:55.190Z,8532.00
2022-09-07T22:20:02.438Z,8388.00
2022-09-07T22:25:09.634Z,8352.00
2022-09-07T22:30:16.920Z,8316.00
2022-09-07T22:35:24.193Z,8568.00
2022-09-07T22:40:31.482Z,8568.00
2022-09-07T22:45:38.657Z,8352.00
2022-09-07T22:50:45.938Z,8604.00
2022-09-07T22:55:53.257Z,-252.00
2022-09-07T23:01:00.412Z,-252.00
2022-09-07T23:06:07.809Z,-252.00
2022-09-07T23:11:15.119Z,-216.00
2022-09-07T23:16:22.458Z,-252.00
2022-09-07T23:21:30.878Z,-252.00
2022-09-07T23:26:38.195Z,-216.00
2022-09-07T23:31:45.506Z,-252.00
2022-09-07T23:36:52.598Z,-216.00
2022-09-07T23:41:59.916Z,-216.00
2022-09-07T23:47:07.072Z,-216.00
2022-09-07T23:52:14.274Z,-252.00
2022-09-07T23:57:21.474Z,-216.00
